Terminal Aerodrome Forecast
Issued by NWS

Home | Current Version | Previous Version | Graphics & Text | Print | Product List | Glossary Off
Versions: 1 2 3 4 5 6 7 8 9 10 11 12 13 14 15 16 17 18 19 20 21 22 23 24 25 26 27 28 29 30 31 32 33 34

170
FTUS43 KDDC 221720
TAFGCK
TAF
KGCK 221720Z 2218/2318 21028G34KT P6SM SKC
     FM221900 18028G38KT P6SM BKN100
     FM230600 16016G26KT P6SM BKN200 WS020/19050KT
     FM231200 17014G24KT P6SM SCT200=

USA.gov is the U.S. government's official web portal to all federal, state and local government web resources and services.